Time;durP1;ratioP1;P1;durP2;ratioP2;P2;SDS_P1;SDS_P2;PMS_P1;PMS_P2;Temp;Humidity;BMP_temperature;BMP_pressure;BME280_temperature;BME280_humidity;BME280_pressure;Samples;Min_cycle;Max_cycle;Signal;HPM_P1;HPM_P2
2022/08/01 00:02:21;;;;;;;19.77;5.95;;;28.60;99.90;;;;;;5034782;28;20025;-49
2022/08/01 00:04:47;;;;;;;11.80;6.63;;;28.60;99.90;;;;;;5034987;28;20025;-49
2022/08/01 00:07:12;;;;;;;18.55;6.05;;;28.50;99.90;;;;;;5035071;28;20096;-49
2022/08/01 00:09:38;;;;;;;16.77;6.45;;;28.50;99.90;;;;;;5034809;28;20064;-49
2022/08/01 00:12:04;;;;;;;17.25;5.75;;;28.50;99.90;;;;;;5017008;28;20397;-49
2022/08/01 00:14:30;;;;;;;13.30;6.00;;;28.50;99.90;;;;;;5034550;28;20037;-49
2022/08/01 00:16:56;;;;;;;15.80;6.10;;;28.50;99.90;;;;;;5034468;28;20033;-49
2022/08/01 00:19:22;;;;;;;13.45;6.03;;;28.40;99.90;;;;;;5034564;28;20020;-48
2022/08/01 00:21:47;;;;;;;19.02;6.43;;;28.50;99.90;;;;;;5034705;28;20033;-49
2022/08/01 00:24:13;;;;;;;16.60;5.55;;;28.40;99.90;;;;;;5034395;28;20037;-49
2022/08/01 00:26:39;;;;;;;19.08;6.20;;;28.40;99.90;;;;;;5034264;28;20037;-49
2022/08/01 00:29:05;;;;;;;15.95;6.15;;;28.40;99.90;;;;;;5034277;28;20036;-49
2022/08/01 00:31:30;;;;;;;21.42;6.55;;;28.40;99.90;;;;;;5034087;28;20029;-49
2022/08/01 00:33:56;;;;;;;13.95;5.18;;;28.40;99.90;;;;;;5034310;28;20055;-48
2022/08/01 00:36:22;;;;;;;10.70;4.75;;;28.40;99.90;;;;;;5032744;28;20095;-49
2022/08/01 00:38:47;;;;;;;13.20;5.13;;;28.40;99.90;;;;;;5034339;28;20024;-49
2022/08/01 00:41:13;;;;;;;18.50;6.10;;;28.40;99.90;;;;;;5034116;28;20029;-48
2022/08/01 00:43:39;;;;;;;16.50;6.20;;;28.40;99.90;;;;;;5034008;28;20491;-48
2022/08/01 00:46:05;;;;;;;12.68;5.90;;;28.40;99.90;;;;;;5033977;28;20087;-49
2022/08/01 00:48:30;;;;;;;14.45;6.00;;;28.30;99.90;;;;;;5033954;28;20053;-48
2022/08/01 00:50:56;;;;;;;15.55;5.88;;;28.30;99.90;;;;;;5033887;28;20021;-48
2022/08/01 00:53:22;;;;;;;16.42;6.07;;;28.30;99.90;;;;;;5033820;28;20382;-48
2022/08/01 00:55:48;;;;;;;14.15;6.28;;;28.30;99.90;;;;;;5034058;28;20033;-48
2022/08/01 00:58:14;;;;;;;13.68;5.32;;;28.30;99.90;;;;;;5033778;28;20029;-48
2022/08/01 01:00:40;;;;;;;16.80;6.00;;;28.30;99.90;;;;;;5034231;28;20584;-48
2022/08/01 01:03:06;;;;;;;16.77;5.05;;;28.20;99.90;;;;;;5033733;28;20025;-48
2022/08/01 01:05:41;;;;;;;12.98;5.57;;;28.20;99.90;;;;;;5032193;28;20565;-48
2022/08/01 01:08:19;;;;;;;14.55;5.80;;;28.20;99.90;;;;;;5032756;28;20033;-48
2022/08/01 01:11:10;;;;;;;16.50;6.15;;;28.20;99.90;;;;;;5033561;28;20033;-48
2022/08/01 01:13:42;;;;;;;16.90;5.40;;;28.20;99.90;;;;;;5033584;28;20035;-48
2022/08/01 01:16:17;;;;;;;18.10;6.25;;;28.20;99.90;;;;;;5033374;28;20073;-48
2022/08/01 01:18:55;;;;;;;17.48;6.38;;;28.10;99.90;;;;;;5033447;28;20022;-48
2022/08/01 01:21:20;;;;;;;13.35;5.95;;;28.10;99.90;;;;;;5033578;28;20048;-48
2022/08/01 01:24:05;;;;;;;16.73;5.50;;;28.10;99.90;;;;;;5033291;28;20418;-48
2022/08/01 01:27:08;;;;;;;19.83;6.78;;;28.10;99.90;;;;;;5033250;28;20029;-48
2022/08/01 01:29:42;;;;;;;18.52;6.68;;;28.10;99.90;;;;;;4971713;28;20049;-49
2022/08/01 01:32:28;;;;;;;17.60;5.22;;;28.10;99.90;;;;;;5024790;28;20034;-49
2022/08/01 01:34:56;;;;;;;12.73;5.82;;;28.10;99.90;;;;;;5033060;28;20029;-48
2022/08/01 01:37:24;;;;;;;9.85;5.65;;;28.10;99.90;;;;;;5032966;28;20041;-49
2022/08/01 01:39:52;;;;;;;15.80;5.82;;;28.10;99.90;;;;;;5031927;28;20025;-48
2022/08/01 01:42:19;;;;;;;16.65;6.13;;;28.10;99.90;;;;;;5033132;28;20024;-48
2022/08/01 01:44:48;;;;;;;24.38;5.82;;;28.10;99.90;;;;;;5032890;28;20381;-48
2022/08/01 01:47:16;;;;;;;13.93;6.32;;;28.10;99.90;;;;;;5033004;28;20025;-48
2022/08/01 01:49:44;;;;;;;13.90;6.32;;;28.10;99.90;;;;;;5032833;28;20029;-48
2022/08/01 01:52:13;;;;;;;11.35;5.55;;;28.10;99.90;;;;;;5032779;28;20098;-48
2022/08/01 01:54:49;;;;;;;14.45;5.80;;;28.00;99.90;;;;;;5032742;28;20028;-48
2022/08/01 01:57:16;;;;;;;12.75;5.43;;;28.00;99.90;;;;;;5032682;28;20060;-47
2022/08/01 01:59:44;;;;;;;13.63;5.60;;;28.10;99.90;;;;;;5044478;22;20177;-48
2022/08/01 02:02:12;;;;;;;15.50;5.18;;;28.00;99.90;;;;;;5032661;28;20061;-48
2022/08/01 02:04:42;;;;;;;16.42;6.60;;;28.00;99.90;;;;;;5032645;28;20038;-48
2022/08/01 02:07:12;;;;;;;12.73;5.65;;;28.00;99.90;;;;;;5032754;28;20629;-49
2022/08/01 02:09:41;;;;;;;13.13;6.53;;;28.00;99.90;;;;;;5032462;28;20013;-48
2022/08/01 02:12:11;;;;;;;13.60;5.85;;;28.00;99.90;;;;;;5032552;28;20029;-49
2022/08/01 02:14:41;;;;;;;12.48;6.20;;;28.00;99.90;;;;;;5032555;28;20018;-49
2022/08/01 02:17:10;;;;;;;15.27;5.90;;;28.00;99.90;;;;;;5032318;28;20084;-49
2022/08/01 02:19:36;;;;;;;11.85;5.20;;;28.00;99.90;;;;;;5032258;28;20026;-49
2022/08/01 02:22:10;;;;;;;13.60;5.75;;;28.00;99.90;;;;;;5031076;28;20478;-49
2022/08/01 02:25:01;;;;;;;18.98;5.78;;;27.90;99.90;;;;;;5032229;28;20017;-49
2022/08/01 02:27:37;;;;;;;13.20;5.93;;;27.90;99.90;;;;;;5032045;28;20034;-48
2022/08/01 02:30:06;;;;;;;15.07;5.78;;;27.90;99.90;;;;;;5047410;28;20025;-49
2022/08/01 02:32:43;;;;;;;13.38;5.88;;;27.90;99.90;;;;;;5032020;28;20037;-48
2022/08/01 02:35:14;;;;;;;16.85;6.07;;;27.90;99.90;;;;;;5032044;28;20037;-49
2022/08/01 02:37:42;;;;;;;16.83;7.35;;;27.90;99.90;;;;;;5031832;28;20042;-48
2022/08/01 02:40:10;;;;;;;13.50;6.47;;;27.90;99.90;;;;;;5030643;28;20124;-48
2022/08/01 02:42:39;;;;;;;16.15;5.97;;;27.90;99.90;;;;;;5031989;28;20060;-48
2022/08/01 02:45:08;;;;;;;11.65;5.53;;;27.80;99.90;;;;;;5031651;28;20079;-48
2022/08/01 02:47:37;;;;;;;13.43;5.65;;;27.80;99.90;;;;;;5031739;28;20037;-48
2022/08/01 02:50:04;;;;;;;17.92;6.00;;;27.80;99.90;;;;;;5031822;28;20028;-48
2022/08/01 02:52:32;;;;;;;12.07;5.78;;;27.80;99.90;;;;;;5030489;28;20032;-49
2022/08/01 02:54:58;;;;;;;15.27;6.78;;;27.80;99.90;;;;;;5031662;28;20033;-50
2022/08/01 02:57:26;;;;;;;15.32;5.88;;;27.80;99.90;;;;;;5031949;28;20037;-49
2022/08/01 02:59:53;;;;;;;19.65;6.35;;;27.80;99.90;;;;;;5043948;22;20060;-48
2022/08/01 03:02:21;;;;;;;14.50;6.10;;;27.80;99.90;;;;;;5030165;28;20129;-48
2022/08/01 03:04:47;;;;;;;;;;;27.70;99.90;;;;;;5031967;28;20361;-48
2022/08/01 03:07:14;;;;;;;14.57;5.78;;;27.70;99.90;;;;;;5031497;28;20423;-48
2022/08/01 03:09:44;;;;;;;13.88;6.15;;;27.80;99.90;;;;;;5031474;28;20032;-48
2022/08/01 03:12:25;;;;;;;15.18;6.00;;;27.70;99.90;;;;;;5031650;28;20034;-48
2022/08/01 03:14:54;;;;;;;17.70;6.72;;;27.70;99.90;;;;;;5031418;28;20014;-48
2022/08/01 03:17:22;;;;;;;14.98;6.57;;;27.70;99.90;;;;;;5030019;28;20385;-48
2022/08/01 03:19:49;;;;;;;17.83;6.22;;;27.80;99.90;;;;;;5030123;28;20536;-49
2022/08/01 03:22:15;;;;;;;;;;;27.70;99.90;;;;;;5031738;28;20389;-48
2022/08/01 03:24:44;;;;;;;16.23;5.95;;;27.70;99.90;;;;;;5031433;28;19912;-49
2022/08/01 03:27:11;;;;;;;20.55;7.35;;;27.70;99.90;;;;;;5031424;28;20418;-48
2022/08/01 03:29:37;;;;;;;;;;;27.70;99.90;;;;;;5031655;28;20079;-48
2022/08/01 03:32:05;;;;;;;11.63;5.67;;;27.70;99.90;;;;;;5030852;28;20476;-48
2022/08/01 03:34:31;;;;;;;21.00;6.70;;;27.70;99.90;;;;;;5031256;28;20345;-48
2022/08/01 03:37:31;;;;;;;14.38;6.57;;;27.70;99.90;;;;;;5030947;28;20121;-48
2022/08/01 03:40:01;;;;;;;11.85;5.88;;;27.70;99.90;;;;;;5017876;28;20072;-48
2022/08/01 03:42:45;;;;;;;12.15;5.88;;;27.70;99.90;;;;;;5031318;28;20025;-49
2022/08/01 03:45:19;;;;;;;15.10;5.80;;;27.70;99.90;;;;;;5031123;28;20076;-49
2022/08/01 03:47:48;;;;;;;15.95;6.00;;;27.70;99.90;;;;;;5031374;28;20037;-48
2022/08/01 03:50:17;;;;;;;20.00;5.35;;;27.70;99.90;;;;;;5031120;28;20026;-48
2022/08/01 03:52:46;;;;;;;15.88;5.85;;;27.70;99.90;;;;;;5031179;28;20030;-48
2022/08/01 03:55:13;;;;;;;14.25;6.45;;;27.70;99.90;;;;;;5031153;28;20032;-49
2022/08/01 03:57:40;;;;;;;12.65;5.57;;;27.70;99.90;;;;;;5030893;28;20033;-48
2022/08/01 04:00:08;;;;;;;16.25;5.78;;;27.70;99.90;;;;;;5031424;28;20057;-48
2022/08/01 04:02:35;;;;;;;18.33;5.90;;;27.70;99.90;;;;;;5031467;28;20037;-48
2022/08/01 04:05:01;;;;;;;11.32;5.35;;;27.80;99.90;;;;;;5031089;28;20029;-49
2022/08/01 04:07:30;;;;;;;11.83;5.17;;;27.80;99.90;;;;;;5031041;28;20026;-49
2022/08/01 04:09:56;;;;;;;14.70;6.28;;;27.90;99.90;;;;;;5031023;28;20029;-49
2022/08/01 04:12:22;;;;;;;14.05;6.10;;;27.90;99.90;;;;;;5030839;28;20021;-49
2022/08/01 04:14:48;;;;;;;10.27;5.40;;;28.00;99.90;;;;;;5030680;28;20033;-49
2022/08/01 04:17:15;;;;;;;12.23;6.53;;;28.10;99.90;;;;;;5030889;28;20366;-49
2022/08/01 04:19:42;;;;;;;9.48;5.35;;;28.10;99.90;;;;;;5030831;28;20021;-49
2022/08/01 04:22:11;;;;;;;15.23;5.45;;;28.20;99.90;;;;;;5030761;28;20026;-49
2022/08/01 04:24:38;;;;;;;15.23;5.80;;;28.30;99.90;;;;;;5029411;28;20547;-49
2022/08/01 04:27:09;;;;;;;8.20;4.78;;;28.30;99.90;;;;;;5030665;28;20549;-49
2022/08/01 04:29:37;;;;;;;13.20;5.32;;;28.40;99.90;;;;;;5030589;28;20100;-49
2022/08/01 04:32:09;;;;;;;12.52;4.78;;;28.40;99.90;;;;;;5030614;28;20021;-49
2022/08/01 04:34:37;;;;;;;11.27;5.00;;;28.40;99.90;;;;;;5030697;28;20106;-49
2022/08/01 04:37:04;;;;;;;13.77;4.82;;;28.50;99.90;;;;;;5030462;28;20029;-49
2022/08/01 04:39:32;;;;;;;13.35;5.00;;;28.60;99.90;;;;;;5030526;28;20029;-49
2022/08/01 04:42:00;;;;;;;10.30;5.63;;;28.60;99.90;;;;;;5030566;28;20036;-49
2022/08/01 04:44:27;;;;;;;12.20;5.10;;;28.60;99.90;;;;;;5032523;28;20109;-49
2022/08/01 04:46:54;;;;;;;14.45;5.28;;;28.70;99.90;;;;;;5034049;28;20029;-49
2022/08/01 04:49:21;;;;;;;20.48;7.10;;;28.70;99.90;;;;;;5034068;28;20032;-49
2022/08/01 04:51:57;;;;;;;16.40;5.78;;;28.70;99.90;;;;;;5034052;28;20021;-50
2022/08/01 04:54:27;;;;;;;16.80;5.32;;;28.70;99.90;;;;;;5033761;28;20026;-49
2022/08/01 04:56:55;;;;;;;13.63;5.22;;;28.80;99.90;;;;;;5033789;28;20034;-49
2022/08/01 04:59:39;;;;;;;15.73;5.60;;;28.80;99.90;;;;;;5033670;28;20025;-49
2022/08/01 05:02:17;;;;;;;13.00;5.35;;;28.80;99.90;;;;;;5033697;28;20033;-49
2022/08/01 05:04:45;;;;;;;14.60;6.97;;;28.90;99.90;;;;;;5033721;28;20026;-48
2022/08/01 05:07:12;;;;;;;12.52;7.03;;;28.90;99.90;;;;;;5033714;28;20028;-49
2022/08/01 05:09:41;;;;;;;11.52;6.70;;;28.90;99.90;;;;;;5033669;28;20385;-49
2022/08/01 05:12:07;;;;;;;14.15;5.53;;;28.90;99.90;;;;;;5033446;28;20038;-49
2022/08/01 05:14:33;;;;;;;13.53;6.90;;;28.90;99.90;;;;;;5032230;28;20064;-49
2022/08/01 05:17:02;;;;;;;18.67;5.68;;;28.90;99.90;;;;;;5033350;28;20040;-49
2022/08/01 05:19:31;;;;;;;15.93;6.53;;;28.90;99.90;;;;;;5033528;28;20052;-49
2022/08/01 05:21:58;;;;;;;14.60;6.55;;;29.00;99.90;;;;;;5033569;28;20061;-49
2022/08/01 05:24:24;;;;;;;15.27;5.47;;;29.00;99.90;;;;;;5033300;28;20087;-49
2022/08/01 05:26:50;;;;;;;19.40;6.60;;;29.00;99.90;;;;;;5031953;28;20116;-49
2022/08/01 05:29:15;;;;;;;14.02;6.40;;;29.10;99.90;;;;;;5033379;28;20045;-50
2022/08/01 05:31:41;;;;;;;9.18;5.90;;;29.10;99.90;;;;;;5033125;28;20037;-49
2022/08/01 05:34:07;;;;;;;15.30;5.63;;;29.10;99.90;;;;;;5033214;28;20014;-49
2022/08/01 05:36:33;;;;;;;16.30;5.85;;;29.10;99.90;;;;;;5033065;28;20025;-49
2022/08/01 05:38:58;;;;;;;14.55;5.55;;;29.10;99.90;;;;;;5033249;28;20104;-50
2022/08/01 05:41:24;;;;;;;24.38;6.47;;;29.10;99.90;;;;;;5033089;28;20075;-49
2022/08/01 05:43:50;;;;;;;13.73;5.57;;;29.10;99.90;;;;;;5033101;28;20091;-49
2022/08/01 05:46:16;;;;;;;10.82;5.20;;;29.10;99.90;;;;;;5032904;28;20094;-49
2022/08/01 05:48:41;;;;;;;9.20;5.45;;;29.10;99.90;;;;;;5032792;28;20033;-49
2022/08/01 05:51:07;;;;;;;17.60;5.45;;;29.00;99.90;;;;;;5032739;28;20040;-49
2022/08/01 05:53:34;;;;;;;17.80;6.10;;;29.00;99.90;;;;;;5032731;28;20036;-49
2022/08/01 05:56:01;;;;;;;13.27;6.20;;;29.00;99.90;;;;;;5032290;28;20477;-49
2022/08/01 05:58:27;;;;;;;;;;;29.00;99.90;;;;;;5048521;28;20032;-49
2022/08/01 06:00:53;;;;;;;12.50;5.75;;;29.00;99.90;;;;;;5032389;28;20281;-49
2022/08/01 06:03:19;;;;;;;9.85;5.50;;;29.00;99.90;;;;;;5032734;28;20033;-49
2022/08/01 06:05:45;;;;;;;20.63;6.40;;;29.00;99.90;;;;;;5032635;28;20013;-49
2022/08/01 06:08:10;;;;;;;17.10;5.85;;;29.00;99.90;;;;;;5032520;28;20535;-49
2022/08/01 06:10:36;;;;;;;14.60;6.38;;;29.00;99.90;;;;;;5032500;28;20028;-49
2022/08/01 06:13:02;;;;;;;14.38;6.03;;;29.00;99.90;;;;;;5032385;28;20148;-49
2022/08/01 06:15:32;;;;;;;13.20;5.97;;;29.00;99.90;;;;;;5031017;28;20473;-49
2022/08/01 06:17:58;;;;;;;12.48;6.18;;;29.00;99.90;;;;;;5030958;28;20040;-49
2022/08/01 06:20:24;;;;;;;11.13;5.80;;;29.00;99.90;;;;;;5032115;28;20025;-49
2022/08/01 06:22:51;;;;;;;13.90;5.70;;;29.00;99.90;;;;;;5032491;28;20151;-50
2022/08/01 06:25:18;;;;;;;12.35;5.10;;;29.10;99.90;;;;;;5032262;28;20013;-49
2022/08/01 06:27:44;;;;;;;11.65;5.30;;;29.10;99.90;;;;;;5032182;28;20443;-49
2022/08/01 06:30:10;;;;;;;11.35;5.30;;;29.10;99.90;;;;;;5032109;28;20059;-49
2022/08/01 06:32:36;;;;;;;14.57;5.38;;;29.10;99.90;;;;;;5031815;28;20381;-49
2022/08/01 06:35:02;;;;;;;19.67;5.25;;;29.10;99.90;;;;;;5031823;28;20040;-50
2022/08/01 06:37:32;;;;;;;17.53;5.57;;;29.10;99.90;;;;;;5031836;28;20112;-50
2022/08/01 06:40:24;;;;;;;13.63;5.32;;;29.10;99.90;;;;;;5031933;28;20022;-50
2022/08/01 06:42:50;;;;;;;15.30;5.75;;;29.10;99.90;;;;;;5029181;28;20088;-50
2022/08/01 06:45:16;;;;;;;15.40;5.97;;;29.10;99.90;;;;;;5031809;28;20424;-50
2022/08/01 06:47:43;;;;;;;14.63;5.68;;;29.20;99.90;;;;;;5031564;28;20025;-50
2022/08/01 06:50:09;;;;;;;;;;;29.20;99.90;;;;;;5032140;28;20025;-50
2022/08/01 06:52:36;;;;;;;13.05;5.93;;;29.20;99.90;;;;;;5030544;28;19916;-50
2022/08/01 06:55:02;;;;;;;11.32;5.18;;;29.30;99.90;;;;;;5031581;28;20033;-50
2022/08/01 06:57:28;;;;;;;12.97;6.53;;;29.30;99.90;;;;;;5031552;28;20478;-50
2022/08/01 06:59:54;;;;;;;13.20;7.93;;;29.20;99.90;;;;;;5031653;28;20048;-50
2022/08/01 07:02:22;;;;;;;17.55;7.28;;;29.30;99.90;;;;;;5031543;28;20032;-50
2022/08/01 07:04:48;;;;;;;13.70;5.40;;;29.30;99.90;;;;;;5031391;28;20108;-50
2022/08/01 07:07:13;;;;;;;11.80;6.38;;;29.30;99.90;;;;;;5030603;28;20426;-50
2022/08/01 07:09:42;;;;;;;13.80;5.68;;;29.20;99.90;;;;;;5031390;28;20030;-50
2022/08/01 07:12:09;;;;;;;20.17;6.28;;;29.30;99.90;;;;;;5031511;28;20488;-50
2022/08/01 07:14:35;;;;;;;15.63;5.95;;;29.30;99.90;;;;;;5031338;28;20026;-50
2022/08/01 07:17:00;;;;;;;13.73;5.75;;;29.30;99.90;;;;;;5031181;28;20512;-50
2022/08/01 07:19:27;;;;;;;16.88;6.93;;;29.30;99.90;;;;;;5031434;28;20026;-50
2022/08/01 07:21:53;;;;;;;14.40;7.13;;;29.30;99.90;;;;;;5031500;28;20354;-50
2022/08/01 07:24:18;;;;;;;17.90;6.82;;;29.20;99.90;;;;;;5029877;28;20037;-50
2022/08/01 07:26:46;;;;;;;14.80;5.75;;;29.30;99.90;;;;;;5031271;28;20018;-50
2022/08/01 07:29:12;;;;;;;17.08;5.38;;;29.30;99.90;;;;;;5031102;28;20060;-50
2022/08/01 07:31:38;;;;;;;17.45;7.90;;;29.20;99.90;;;;;;5031239;28;20057;-50
2022/08/01 07:34:04;;;;;;;17.02;7.13;;;29.30;99.90;;;;;;5031151;28;20022;-51
2022/08/01 07:36:30;;;;;;;11.00;5.20;;;29.30;99.90;;;;;;5029673;28;20446;-50
2022/08/01 07:38:56;;;;;;;24.00;6.72;;;29.30;99.90;;;;;;5031344;28;20050;-51
2022/08/01 07:41:21;;;;;;;23.77;6.95;;;29.20;99.90;;;;;;5031049;28;20378;-50
2022/08/01 07:43:48;;;;;;;19.73;5.88;;;29.10;99.90;;;;;;5031057;28;20025;-51
2022/08/01 07:46:15;;;;;;;12.73;5.10;;;29.10;99.90;;;;;;5030975;28;20104;-51
2022/08/01 07:48:41;;;;;;;21.95;5.78;;;29.10;99.90;;;;;;5029798;28;20026;-51
2022/08/01 07:51:08;;;;;;;17.83;6.47;;;29.00;99.90;;;;;;5030837;28;20117;-51
2022/08/01 07:53:34;;;;;;;19.35;6.47;;;29.00;99.90;;;;;;5030961;28;20056;-51
2022/08/01 07:56:00;;;;;;;13.07;6.80;;;29.00;99.90;;;;;;5030513;28;20038;-51
2022/08/01 07:58:25;;;;;;;13.45;7.18;;;29.00;99.90;;;;;;5030861;28;20034;-51
2022/08/01 08:00:51;;;;;;;14.27;5.50;;;29.00;99.90;;;;;;5030506;28;20103;-50
2022/08/01 08:03:17;;;;;;;17.77;6.38;;;29.00;99.90;;;;;;5030695;28;20033;-51
2022/08/01 08:05:42;;;;;;;13.73;5.00;;;29.10;99.90;;;;;;5030728;28;20033;-51
2022/08/01 08:08:10;;;;;;;11.00;5.25;;;29.10;99.90;;;;;;5030676;28;20025;-51
2022/08/01 08:10:36;;;;;;;15.40;5.90;;;29.10;99.90;;;;;;5030731;28;20026;-51
2022/08/01 08:13:02;;;;;;;15.20;5.80;;;29.10;99.90;;;;;;5030466;28;20113;-51
2022/08/01 08:15:29;;;;;;;14.25;6.03;;;29.10;99.90;;;;;;5030605;28;20021;-51
2022/08/01 08:17:55;;;;;;;14.93;7.13;;;29.10;99.90;;;;;;5031751;28;20030;-51
2022/08/01 08:20:26;;;;;;;17.35;6.15;;;29.10;99.90;;;;;;5034139;28;20033;-51
2022/08/01 08:22:53;;;;;;;12.45;4.70;;;29.10;99.90;;;;;;5034137;28;20025;-51
2022/08/01 08:25:19;;;;;;;12.65;4.57;;;29.10;99.90;;;;;;5034301;28;20025;-51
2022/08/01 08:27:45;;;;;;;12.35;5.65;;;29.20;99.90;;;;;;5034211;28;20028;-51
2022/08/01 08:30:12;;;;;;;14.20;4.57;;;29.20;99.90;;;;;;5034228;28;20036;-51
2022/08/01 08:32:38;;;;;;;12.03;4.90;;;29.20;99.90;;;;;;5034336;28;20021;-51
2022/08/01 08:35:05;;;;;;;15.07;4.85;;;29.20;99.90;;;;;;5034230;28;20038;-51
2022/08/01 08:37:31;;;;;;;12.52;5.50;;;29.20;99.90;;;;;;5032734;28;20026;-50
2022/08/01 08:39:57;;;;;;;15.98;5.38;;;29.20;99.90;;;;;;5034480;28;20021;-51
2022/08/01 08:42:23;;;;;;;13.63;4.93;;;29.20;99.90;;;;;;5034132;28;20440;-51
2022/08/01 08:44:49;;;;;;;12.60;4.85;;;29.20;99.90;;;;;;5034222;28;20021;-51
2022/08/01 08:47:15;;;;;;;13.60;5.53;;;29.20;99.90;;;;;;5034069;28;20099;-51
2022/08/01 08:49:44;;;;;;;13.20;5.15;;;29.30;99.90;;;;;;5033955;28;20018;-51
2022/08/01 08:52:11;;;;;;;12.18;5.20;;;29.30;99.90;;;;;;5049237;28;20029;-51
2022/08/01 08:54:40;;;;;;;14.43;5.50;;;29.30;99.90;;;;;;5033896;28;20048;-51
2022/08/01 08:57:06;;;;;;;11.98;5.97;;;29.30;99.90;;;;;;5049111;28;20049;-51
2022/08/01 08:59:32;;;;;;;9.60;4.90;;;29.40;99.90;;;;;;5033410;28;20087;-51
2022/08/01 09:01:59;;;;;;;13.98;6.00;;;29.40;99.90;;;;;;5033913;28;20036;-51
2022/08/01 09:04:25;;;;;;;13.88;5.78;;;29.40;99.90;;;;;;5032468;28;20028;-51
2022/08/01 09:06:51;;;;;;;13.10;4.80;;;29.40;99.90;;;;;;5048891;28;20403;-51
2022/08/01 09:09:17;;;;;;;7.55;4.63;;;29.40;99.90;;;;;;5033652;28;20385;-51
2022/08/01 09:11:44;;;;;;;11.73;5.10;;;29.50;99.90;;;;;;5033471;28;20099;-51
2022/08/01 09:14:23;;;;;;;14.23;7.28;;;29.50;99.90;;;;;;5033538;28;20623;-51
2022/08/01 09:17:08;;;;;;;15.02;6.53;;;29.50;99.90;;;;;;5033431;28;20496;-51
2022/08/01 09:19:42;;;;;;;13.88;5.50;;;29.50;99.90;;;;;;5033352;28;20032;-51
2022/08/01 09:22:17;;;;;;;18.80;5.25;;;29.50;99.90;;;;;;5033292;28;20021;-50
2022/08/01 09:24:59;;;;;;;9.93;5.40;;;29.60;99.90;;;;;;5033142;28;20056;-50
2022/08/01 09:27:25;;;;;;;19.73;8.00;;;29.60;99.90;;;;;;5033145;28;20476;-51
2022/08/01 09:29:52;;;;;;;16.35;4.70;;;29.60;99.90;;;;;;5030959;28;20036;-50
2022/08/01 09:32:18;;;;;;;;;;;29.60;99.90;;;;;;5033549;28;20115;-50
2022/08/01 09:34:46;;;;;;;13.77;5.10;;;29.60;99.90;;;;;;5033214;28;19905;-50
2022/08/01 09:37:12;;;;;;;16.95;5.10;;;29.60;99.90;;;;;;5032839;28;20060;-49
2022/08/01 09:39:42;;;;;;;14.05;4.65;;;29.60;99.90;;;;;;5033161;28;20066;-50
2022/08/01 09:42:22;;;;;;;10.48;3.95;;;29.60;99.90;;;;;;5032930;28;20097;-50
2022/08/01 09:44:47;;;;;;;8.80;4.10;;;29.60;99.90;;;;;;5032944;28;20025;-50
2022/08/01 09:47:14;;;;;;;8.85;3.92;;;29.60;99.90;;;;;;5032884;28;20148;-50
2022/08/01 09:49:41;;;;;;;12.40;4.80;;;29.60;99.90;;;;;;5032651;28;20358;-50
2022/08/01 09:52:18;;;;;;;10.90;4.18;;;29.60;99.90;;;;;;5032775;28;20485;-49
2022/08/01 09:54:56;;;;;;;11.57;4.13;;;29.60;99.90;;;;;;5032722;28;20497;-50
2022/08/01 09:57:22;;;;;;;10.60;4.95;;;29.70;99.90;;;;;;5030988;28;20478;-50
2022/08/01 09:59:53;;;;;;;11.02;4.82;;;29.70;99.90;;;;;;5032306;28;20034;-50
2022/08/01 10:02:34;;;;;;;11.80;5.63;;;29.70;99.90;;;;;;5047606;28;20033;-50
2022/08/01 10:05:02;;;;;;;12.25;4.95;;;29.70;99.90;;;;;;5030855;28;20014;-51
2022/08/01 10:07:28;;;;;;;9.10;4.13;;;29.80;99.90;;;;;;5032147;28;20110;-50
2022/08/01 10:09:54;;;;;;;12.25;4.18;;;29.80;99.90;;;;;;5032084;28;20047;-50
2022/08/01 10:12:23;;;;;;;11.63;4.90;;;29.80;99.90;;;;;;5032086;28;20060;-51
2022/08/01 10:14:51;;;;;;;10.18;4.68;;;29.80;99.90;;;;;;5031989;28;20503;-50
2022/08/01 10:17:19;;;;;;;15.07;4.40;;;29.80;99.90;;;;;;5031858;28;20072;-51
2022/08/01 10:19:45;;;;;;;15.90;5.00;;;29.90;99.90;;;;;;5032085;28;20504;-51
2022/08/01 10:22:19;;;;;;;14.40;5.72;;;29.90;99.90;;;;;;5032074;28;20104;-51
2022/08/01 10:24:47;;;;;;;13.63;4.60;;;29.90;99.90;;;;;;5031933;28;20021;-51
2022/08/01 10:27:15;;;;;;;16.92;7.65;;;29.90;99.90;;;;;;5031717;28;20036;-50
2022/08/01 10:29:45;;;;;;;11.85;4.13;;;29.90;99.90;;;;;;5030648;28;20029;-50
2022/08/01 10:32:11;;;;;;;11.90;4.05;;;29.90;99.90;;;;;;5031986;28;20100;-49
2022/08/01 10:34:38;;;;;;;9.98;4.78;;;30.00;99.90;;;;;;5031591;28;20351;-50
2022/08/01 10:37:06;;;;;;;17.25;4.72;;;29.90;99.90;;;;;;5031856;28;20045;-50
2022/08/01 10:39:33;;;;;;;11.20;4.28;;;29.90;99.90;;;;;;5031933;28;20033;-51
2022/08/01 10:42:00;;;;;;;11.07;4.10;;;29.90;99.90;;;;;;5031882;28;20496;-51
2022/08/01 10:44:28;;;;;;;10.88;4.85;;;29.90;99.90;;;;;;5031928;28;20037;-50
2022/08/01 10:47:15;;;;;;;13.25;4.10;;;29.90;99.90;;;;;;5031840;28;20021;-50
2022/08/01 10:50:04;;;;;;;12.18;4.10;;;29.90;99.90;;;;;;5031721;28;20034;-50
2022/08/01 10:52:30;;;;;;;8.60;3.28;;;30.00;99.90;;;;;;5031539;28;20022;-50
2022/08/01 10:55:09;;;;;;;8.93;3.88;;;30.00;99.90;;;;;;5030345;28;20144;-50
2022/08/01 10:57:45;;;;;;;10.18;3.60;;;30.00;99.90;;;;;;5031708;28;20291;-50
2022/08/01 11:00:20;;;;;;;9.00;3.35;;;30.00;99.90;;;;;;5031451;28;20045;-50
2022/08/01 11:03:12;;;;;;;10.07;3.88;;;30.00;99.90;;;;;;5031819;28;20029;-51
2022/08/01 11:05:40;;;;;;;8.68;3.85;;;29.90;99.90;;;;;;5028997;28;20072;-50
2022/08/01 11:08:10;;;;;;;12.52;4.25;;;29.90;99.90;;;;;;5031708;28;20101;-50
2022/08/01 11:10:45;;;;;;;8.60;4.22;;;29.90;99.90;;;;;;5031671;28;20026;-50
2022/08/01 11:13:11;;;;;;;8.13;4.82;;;30.00;99.90;;;;;;5031185;28;20112;-50
2022/08/01 11:15:41;;;;;;;12.23;4.95;;;29.90;99.90;;;;;;5031530;28;20025;-49
2022/08/01 11:18:29;;;;;;;12.13;3.78;;;30.00;99.90;;;;;;5031429;28;20132;-50
2022/08/01 11:20:58;;;;;;;10.00;4.18;;;30.00;99.90;;;;;;5031354;28;20017;-50
2022/08/01 11:23:24;;;;;;;11.63;3.72;;;29.90;99.90;;;;;;5031260;28;20079;-50
2022/08/01 11:25:52;;;;;;;16.38;9.80;;;29.90;99.90;;;;;;5031163;28;20060;-51
2022/08/01 11:28:25;;;;;;;11.35;4.93;;;30.00;99.90;;;;;;5031168;28;20025;-49
2022/08/01 11:31:06;;;;;;;7.53;3.70;;;29.90;99.90;;;;;;5031202;28;20112;-50
2022/08/01 11:33:41;;;;;;;8.93;4.05;;;30.00;99.90;;;;;;5031192;28;20381;-50
2022/08/01 11:36:13;;;;;;;11.05;4.05;;;29.90;99.90;;;;;;5031249;28;20029;-50
2022/08/01 11:38:41;;;;;;;8.57;4.07;;;29.90;99.90;;;;;;5031171;28;20113;-51
2022/08/01 11:41:20;;;;;;;14.43;5.32;;;30.00;99.90;;;;;;5046462;28;20029;-50
2022/08/01 11:43:57;;;;;;;9.20;5.15;;;30.00;99.90;;;;;;5030958;28;20369;-51
2022/08/01 11:46:58;;;;;;;9.98;3.70;;;30.00;99.90;;;;;;5030859;28;20021;-50
2022/08/01 11:49:28;;;;;;;7.13;4.35;;;30.00;99.90;;;;;;5029511;28;20029;-50
2022/08/01 11:52:03;;;;;;;12.52;3.95;;;30.10;99.90;;;;;;5030791;28;20049;-49
2022/08/01 11:54:32;;;;;;;11.73;4.00;;;30.00;99.90;;;;;;5034251;28;20025;-50
2022/08/01 11:57:00;;;;;;;6.32;3.63;;;30.00;99.90;;;;;;5034634;28;20481;-50
2022/08/01 11:59:28;;;;;;;10.68;4.38;;;30.10;99.90;;;;;;5034715;28;20068;-50
2022/08/01 12:01:53;;;;;;;12.68;4.45;;;30.10;99.90;;;;;;5034554;28;20059;-50
2022/08/01 12:04:20;;;;;;;7.07;3.97;;;30.10;99.90;;;;;;5034597;28;20519;-50
2022/08/01 12:06:46;;;;;;;7.00;4.20;;;30.10;99.90;;;;;;5034860;28;20084;-50
2022/08/01 12:09:21;;;;;;;8.85;3.70;;;30.10;99.90;;;;;;5034646;28;20057;-50
2022/08/01 12:11:47;;;;;;;10.82;4.00;;;30.10;99.90;;;;;;5034663;28;20029;-50
2022/08/01 12:14:20;;;;;;;8.77;4.90;;;30.20;99.90;;;;;;5032412;28;21267;-50
2022/08/01 12:16:53;;;;;;;6.85;3.88;;;30.20;99.90;;;;;;5014812;28;20056;-49
2022/08/01 12:19:24;;;;;;;15.00;4.22;;;30.20;99.90;;;;;;5016801;28;20438;-52
2022/08/01 12:22:06;;;;;;;9.80;4.22;;;30.20;99.90;;;;;;5038538;28;20029;-50
2022/08/01 12:24:33;;;;;;;17.02;4.43;;;30.20;99.90;;;;;;5028551;28;20282;-49
2022/08/01 12:26:59;;;;;;;19.80;5.88;;;30.20;99.90;;;;;;5025910;28;20021;-49
2022/08/01 12:29:39;;;;;;;13.80;4.35;;;30.30;99.90;;;;;;5030753;28;20041;-50
2022/08/01 12:32:26;;;;;;;10.55;4.95;;;30.20;99.90;;;;;;5033766;28;20116;-49
2022/08/01 12:34:53;;;;;;;9.77;3.97;;;30.20;99.90;;;;;;5022926;28;20026;-51
2022/08/01 12:37:19;;;;;;;;;;;30.10;99.90;;;;;;5033961;28;20120;-50
2022/08/01 12:39:46;;;;;;;11.25;4.15;;;30.10;99.90;;;;;;5033805;28;19996;-50
2022/08/01 12:42:13;;;;;;;9.02;4.47;;;30.10;99.90;;;;;;5033755;28;20028;-50
2022/08/01 12:44:41;;;;;;;8.48;4.80;;;30.10;99.90;;;;;;5032579;28;20481;-50
2022/08/01 12:47:09;;;;;;;13.32;4.60;;;30.20;99.90;;;;;;5033899;28;20029;-50
2022/08/01 12:49:38;;;;;;;12.63;4.68;;;30.20;99.90;;;;;;5033421;28;20033;-50
2022/08/01 12:52:05;;;;;;;13.77;4.90;;;30.30;99.90;;;;;;5033696;28;20439;-50